Terminal Aerodrome Forecast
Issued by NWS Blacksburg, VA

Home | Current Version | Previous Version | Text Only | Print | Product List | Glossary On
Versions: 1 2 3 4 5 6 7 8 9 10 11 12 13 14 15 16 17 18
000
FTUS41 KRNK 230826 AAA
TAFLYH
TAF AMD
KLYH 230826Z 2308/2406 02005KT P6SM BKN008
     FM231100 04007KT 2SM RA BR BKN005 OVC020
     FM231500 03008KT 5SM RA BR OVC009
     FM232100 04007KT 3SM -RA BR OVC005=

USA.gov is the U.S. government's official web portal to all federal, state and local government web resources and services.